メインページ
METAR-TAF:

METAR-TAF

空港 :

マルティニーク・エメ・セゼール国際空港

フォール=ド=フランス, マルティニーク

緯度: 14-36N, 経度: 061-00W, 海抜: 5m

現時点の気象観測

当レポートは22分前の03:30(UTC)に作成
東/北東の風 3kt
気温 24°C
湿度 94%
気圧 1015 hPa
視程10km以上

METAR: TFFF 220330Z AUTO 06003KT 9999 FEW020/// ///TCU 24/23 Q1015 TEMPO 3000 SHRA SCT018CB

時間: 23:52 (03:52 UTC)

予報

当レポートは4時間52分前の23:00(UTC)に作成
予報は22日の 00時(UTC)から 22日の 24時(UTC)まで有効
の風 8kt
視程10km以上
高度2500ftの雲は散在している
確率 40% :
22日の 00時(UTC)から 22日の 20時(UTC)まで一時的に
視程: 3000m
高度1800ftの雲は散在している, 積乱雲.
にわか雨
確率 30% :
22日の 10時(UTC)から 22日の 19時(UTC)まで一時的に
視程: 1000m
高度1500ftの雲は散在している, 積乱雲.
激しい雷雨, 雨

TAF: TFFF 212300Z 2200/2224 09008KT 9999 SCT025 PROB40 TEMPO 2200/2220 3000 SHRA SCT018CB PROB30 TEMPO 2210/2219 1000 TSRA SCT015CB

4,000以上の空港の気象観測と天気予報(METAR報とTAF報)

利用可能な観測所は地図上に黄色い丸と赤い丸で示す。

丸の上にカーソルを重ねると観測所名を参照できる。

次にクリックすると気象観測と天気予報を参照できる。

マップの切り替え:黒色「×」印の緑ボタンをクリックして拡大、「-」印の緑ボタンをクリックして縮小、緑色の三角印をクリックして隣りの地図に切り替え


METAR-TAF: